sensor_id;sensor_type;location;lat;lon;timestamp;P1;durP1;ratioP1;P2;durP2;ratioP2
22072;SDS011;11202;50.916;4.698;2022-12-07T00:01:41;33.65;;;20.35;;
22072;SDS011;11202;50.916;4.698;2022-12-07T00:04:10;31.92;;;20.08;;
22072;SDS011;11202;50.916;4.698;2022-12-07T00:06:42;36.85;;;20.50;;
22072;SDS011;11202;50.916;4.698;2022-12-07T00:09:13;33.55;;;19.98;;
22072;SDS011;11202;50.916;4.698;2022-12-07T00:11:43;40.53;;;20.63;;
22072;SDS011;11202;50.916;4.698;2022-12-07T00:14:13;37.53;;;20.48;;
22072;SDS011;11202;50.916;4.698;2022-12-07T00:16:41;31.77;;;20.70;;
22072;SDS011;11202;50.916;4.698;2022-12-07T00:19:08;33.20;;;20.73;;
22072;SDS011;11202;50.916;4.698;2022-12-07T00:21:35;31.02;;;20.10;;
22072;SDS011;11202;50.916;4.698;2022-12-07T00:24:04;33.25;;;20.98;;
22072;SDS011;11202;50.916;4.698;2022-12-07T00:29:07;36.13;;;19.98;;
22072;SDS011;11202;50.916;4.698;2022-12-07T00:31:48;31.55;;;20.70;;
22072;SDS011;11202;50.916;4.698;2022-12-07T00:34:15;34.20;;;19.17;;
22072;SDS011;11202;50.916;4.698;2022-12-07T00:36:43;32.47;;;19.55;;
22072;SDS011;11202;50.916;4.698;2022-12-07T00:39:12;33.25;;;20.17;;
22072;SDS011;11202;50.916;4.698;2022-12-07T00:41:38;34.95;;;21.00;;
22072;SDS011;11202;50.916;4.698;2022-12-07T00:44:06;40.50;;;20.95;;
22072;SDS011;11202;50.916;4.698;2022-12-07T00:46:32;35.55;;;20.73;;
22072;SDS011;11202;50.916;4.698;2022-12-07T00:49:00;35.58;;;21.58;;
22072;SDS011;11202;50.916;4.698;2022-12-07T00:51:25;36.60;;;22.55;;
22072;SDS011;11202;50.916;4.698;2022-12-07T00:53:52;38.40;;;23.10;;
22072;SDS011;11202;50.916;4.698;2022-12-07T00:56:23;37.42;;;23.33;;
22072;SDS011;11202;50.916;4.698;2022-12-07T00:58:53;36.97;;;22.83;;
22072;SDS011;11202;50.916;4.698;2022-12-07T01:01:21;35.38;;;22.85;;
22072;SDS011;11202;50.916;4.698;2022-12-07T01:03:47;36.40;;;22.45;;
22072;SDS011;11202;50.916;4.698;2022-12-07T01:06:19;39.97;;;22.02;;
22072;SDS011;11202;50.916;4.698;2022-12-07T01:08:46;34.05;;;21.67;;
22072;SDS011;11202;50.916;4.698;2022-12-07T01:11:19;36.25;;;22.48;;
22072;SDS011;11202;50.916;4.698;2022-12-07T01:13:46;39.22;;;22.33;;
22072;SDS011;11202;50.916;4.698;2022-12-07T01:16:15;34.17;;;21.02;;
22072;SDS011;11202;50.916;4.698;2022-12-07T01:18:41;40.15;;;24.10;;
22072;SDS011;11202;50.916;4.698;2022-12-07T01:21:11;40.35;;;23.80;;
22072;SDS011;11202;50.916;4.698;2022-12-07T01:23:39;37.95;;;22.90;;
22072;SDS011;11202;50.916;4.698;2022-12-07T01:26:06;40.33;;;24.15;;
22072;SDS011;11202;50.916;4.698;2022-12-07T01:28:37;43.03;;;24.75;;
22072;SDS011;11202;50.916;4.698;2022-12-07T01:31:07;41.25;;;24.98;;
22072;SDS011;11202;50.916;4.698;2022-12-07T01:33:39;39.63;;;25.10;;
22072;SDS011;11202;50.916;4.698;2022-12-07T01:36:13;39.03;;;23.58;;
22072;SDS011;11202;50.916;4.698;2022-12-07T01:38:41;40.97;;;24.73;;
22072;SDS011;11202;50.916;4.698;2022-12-07T01:41:08;46.40;;;25.98;;
22072;SDS011;11202;50.916;4.698;2022-12-07T01:43:36;40.05;;;23.65;;
22072;SDS011;11202;50.916;4.698;2022-12-07T01:46:22;36.40;;;23.05;;
22072;SDS011;11202;50.916;4.698;2022-12-07T01:48:47;37.28;;;23.67;;
22072;SDS011;11202;50.916;4.698;2022-12-07T01:51:13;42.40;;;24.40;;
22072;SDS011;11202;50.916;4.698;2022-12-07T01:53:42;42.90;;;24.40;;
22072;SDS011;11202;50.916;4.698;2022-12-07T01:56:11;42.63;;;24.17;;
22072;SDS011;11202;50.916;4.698;2022-12-07T01:58:42;39.92;;;24.25;;
22072;SDS011;11202;50.916;4.698;2022-12-07T02:01:10;37.65;;;23.08;;
22072;SDS011;11202;50.916;4.698;2022-12-07T02:03:40;36.88;;;23.63;;
22072;SDS011;11202;50.916;4.698;2022-12-07T02:06:07;41.90;;;23.38;;
22072;SDS011;11202;50.916;4.698;2022-12-07T02:08:35;40.35;;;24.48;;
22072;SDS011;11202;50.916;4.698;2022-12-07T02:11:02;41.33;;;24.00;;
22072;SDS011;11202;50.916;4.698;2022-12-07T02:13:33;42.17;;;24.58;;
22072;SDS011;11202;50.916;4.698;2022-12-07T02:21:41;45.63;;;26.42;;
22072;SDS011;11202;50.916;4.698;2022-12-07T02:24:27;46.33;;;25.50;;
22072;SDS011;11202;50.916;4.698;2022-12-07T02:34:37;43.42;;;25.92;;
22072;SDS011;11202;50.916;4.698;2022-12-07T02:40:13;42.95;;;24.95;;
22072;SDS011;11202;50.916;4.698;2022-12-07T02:42:51;41.42;;;25.63;;
22072;SDS011;11202;50.916;4.698;2022-12-07T02:45:23;46.67;;;25.20;;
22072;SDS011;11202;50.916;4.698;2022-12-07T02:47:53;45.05;;;26.77;;
22072;SDS011;11202;50.916;4.698;2022-12-07T02:50:25;43.05;;;26.05;;
22072;SDS011;11202;50.916;4.698;2022-12-07T02:52:51;48.97;;;27.13;;
22072;SDS011;11202;50.916;4.698;2022-12-07T02:55:17;45.13;;;27.40;;
22072;SDS011;11202;50.916;4.698;2022-12-07T03:00:22;45.30;;;27.25;;
22072;SDS011;11202;50.916;4.698;2022-12-07T03:03:03;47.53;;;26.95;;
22072;SDS011;11202;50.916;4.698;2022-12-07T03:08:30;48.83;;;26.65;;
22072;SDS011;11202;50.916;4.698;2022-12-07T03:11:08;43.00;;;25.80;;
22072;SDS011;11202;50.916;4.698;2022-12-07T03:13:45;41.38;;;24.65;;
22072;SDS011;11202;50.916;4.698;2022-12-07T03:18:55;44.50;;;27.05;;
22072;SDS011;11202;50.916;4.698;2022-12-07T03:21:29;47.25;;;27.35;;
22072;SDS011;11202;50.916;4.698;2022-12-07T03:23:59;44.28;;;26.55;;
22072;SDS011;11202;50.916;4.698;2022-12-07T03:26:30;44.45;;;26.25;;
22072;SDS011;11202;50.916;4.698;2022-12-07T03:29:00;42.42;;;26.90;;
22072;SDS011;11202;50.916;4.698;2022-12-07T03:31:34;46.45;;;27.67;;
22072;SDS011;11202;50.916;4.698;2022-12-07T03:39:35;47.22;;;27.65;;
22072;SDS011;11202;50.916;4.698;2022-12-07T03:42:05;41.85;;;26.75;;
22072;SDS011;11202;50.916;4.698;2022-12-07T03:44:32;46.08;;;28.25;;
22072;SDS011;11202;50.916;4.698;2022-12-07T03:49:43;52.70;;;27.55;;
22072;SDS011;11202;50.916;4.698;2022-12-07T03:57:33;44.22;;;24.88;;
22072;SDS011;11202;50.916;4.698;2022-12-07T04:00:03;47.55;;;24.67;;
22072;SDS011;11202;50.916;4.698;2022-12-07T04:02:30;38.95;;;23.60;;
22072;SDS011;11202;50.916;4.698;2022-12-07T04:04:57;49.20;;;25.35;;
22072;SDS011;11202;50.916;4.698;2022-12-07T04:07:25;46.53;;;24.23;;
22072;SDS011;11202;50.916;4.698;2022-12-07T04:09:50;41.58;;;23.90;;
22072;SDS011;11202;50.916;4.698;2022-12-07T04:12:16;42.45;;;22.40;;
22072;SDS011;11202;50.916;4.698;2022-12-07T04:14:44;45.80;;;23.27;;
22072;SDS011;11202;50.916;4.698;2022-12-07T04:17:10;37.83;;;21.48;;
22072;SDS011;11202;50.916;4.698;2022-12-07T04:19:35;36.60;;;20.92;;
22072;SDS011;11202;50.916;4.698;2022-12-07T04:22:02;37.65;;;21.73;;
22072;SDS011;11202;50.916;4.698;2022-12-07T04:24:31;38.20;;;20.67;;
22072;SDS011;11202;50.916;4.698;2022-12-07T04:26:58;38.30;;;20.85;;
22072;SDS011;11202;50.916;4.698;2022-12-07T04:29:23;35.88;;;20.50;;
22072;SDS011;11202;50.916;4.698;2022-12-07T04:31:50;35.10;;;20.55;;
22072;SDS011;11202;50.916;4.698;2022-12-07T04:34:16;33.28;;;20.20;;
22072;SDS011;11202;50.916;4.698;2022-12-07T04:36:43;36.47;;;20.23;;
22072;SDS011;11202;50.916;4.698;2022-12-07T04:39:17;33.20;;;20.07;;
22072;SDS011;11202;50.916;4.698;2022-12-07T04:41:45;35.38;;;19.45;;
22072;SDS011;11202;50.916;4.698;2022-12-07T04:44:10;36.15;;;20.15;;
22072;SDS011;11202;50.916;4.698;2022-12-07T04:46:39;34.00;;;20.23;;
22072;SDS011;11202;50.916;4.698;2022-12-07T04:49:08;39.35;;;21.63;;
22072;SDS011;11202;50.916;4.698;2022-12-07T04:51:34;36.97;;;21.15;;
22072;SDS011;11202;50.916;4.698;2022-12-07T04:54:00;49.33;;;22.92;;
22072;SDS011;11202;50.916;4.698;2022-12-07T04:56:26;40.75;;;23.50;;
22072;SDS011;11202;50.916;4.698;2022-12-07T04:58:52;48.25;;;22.55;;
22072;SDS011;11202;50.916;4.698;2022-12-07T05:01:21;44.00;;;24.17;;
22072;SDS011;11202;50.916;4.698;2022-12-07T05:03:47;37.70;;;23.00;;
22072;SDS011;11202;50.916;4.698;2022-12-07T05:06:14;39.90;;;23.15;;
22072;SDS011;11202;50.916;4.698;2022-12-07T05:08:40;39.65;;;23.13;;
22072;SDS011;11202;50.916;4.698;2022-12-07T05:11:06;43.92;;;24.52;;
22072;SDS011;11202;50.916;4.698;2022-12-07T05:13:35;41.40;;;22.77;;
22072;SDS011;11202;50.916;4.698;2022-12-07T05:16:01;43.20;;;21.83;;
22072;SDS011;11202;50.916;4.698;2022-12-07T05:18:27;41.28;;;21.45;;
22072;SDS011;11202;50.916;4.698;2022-12-07T05:20:52;46.72;;;23.15;;
22072;SDS011;11202;50.916;4.698;2022-12-07T05:23:18;41.28;;;23.15;;
22072;SDS011;11202;50.916;4.698;2022-12-07T05:25:47;44.63;;;23.88;;
22072;SDS011;11202;50.916;4.698;2022-12-07T05:28:12;43.08;;;23.40;;
22072;SDS011;11202;50.916;4.698;2022-12-07T05:30:38;44.08;;;24.77;;
22072;SDS011;11202;50.916;4.698;2022-12-07T05:33:04;47.95;;;22.60;;
22072;SDS011;11202;50.916;4.698;2022-12-07T05:35:30;46.42;;;24.45;;
22072;SDS011;11202;50.916;4.698;2022-12-07T05:37:55;52.85;;;25.98;;
22072;SDS011;11202;50.916;4.698;2022-12-07T05:40:22;53.22;;;24.63;;
22072;SDS011;11202;50.916;4.698;2022-12-07T05:42:50;50.10;;;23.70;;
22072;SDS011;11202;50.916;4.698;2022-12-07T05:45:19;48.78;;;23.92;;
22072;SDS011;11202;50.916;4.698;2022-12-07T05:47:48;46.53;;;23.50;;
22072;SDS011;11202;50.916;4.698;2022-12-07T05:50:14;40.65;;;22.70;;
22072;SDS011;11202;50.916;4.698;2022-12-07T05:52:42;40.47;;;22.80;;
22072;SDS011;11202;50.916;4.698;2022-12-07T05:55:10;43.78;;;22.77;;
22072;SDS011;11202;50.916;4.698;2022-12-07T05:57:35;45.60;;;22.10;;
22072;SDS011;11202;50.916;4.698;2022-12-07T06:00:01;48.10;;;23.45;;
22072;SDS011;11202;50.916;4.698;2022-12-07T06:02:28;41.20;;;22.95;;
22072;SDS011;11202;50.916;4.698;2022-12-07T06:04:54;44.28;;;22.67;;
22072;SDS011;11202;50.916;4.698;2022-12-07T06:07:19;46.67;;;23.95;;
22072;SDS011;11202;50.916;4.698;2022-12-07T06:09:48;45.35;;;22.98;;
22072;SDS011;11202;50.916;4.698;2022-12-07T06:12:13;46.13;;;23.80;;
22072;SDS011;11202;50.916;4.698;2022-12-07T06:14:58;41.78;;;23.13;;
22072;SDS011;11202;50.916;4.698;2022-12-07T06:17:23;39.80;;;22.65;;
22072;SDS011;11202;50.916;4.698;2022-12-07T06:19:49;39.17;;;22.60;;
22072;SDS011;11202;50.916;4.698;2022-12-07T06:22:15;39.67;;;23.45;;
22072;SDS011;11202;50.916;4.698;2022-12-07T06:24:41;38.30;;;22.75;;
22072;SDS011;11202;50.916;4.698;2022-12-07T06:27:07;42.88;;;23.27;;
22072;SDS011;11202;50.916;4.698;2022-12-07T06:29:33;39.50;;;22.45;;
22072;SDS011;11202;50.916;4.698;2022-12-07T06:31:59;47.05;;;24.75;;
22072;SDS011;11202;50.916;4.698;2022-12-07T06:34:25;41.13;;;23.55;;
22072;SDS011;11202;50.916;4.698;2022-12-07T06:36:51;49.35;;;25.45;;
22072;SDS011;11202;50.916;4.698;2022-12-07T06:39:20;48.38;;;23.25;;
22072;SDS011;11202;50.916;4.698;2022-12-07T06:41:47;43.03;;;22.38;;
22072;SDS011;11202;50.916;4.698;2022-12-07T06:44:13;46.30;;;22.95;;
22072;SDS011;11202;50.916;4.698;2022-12-07T06:46:39;41.17;;;22.73;;
22072;SDS011;11202;50.916;4.698;2022-12-07T06:49:06;42.67;;;22.65;;
22072;SDS011;11202;50.916;4.698;2022-12-07T06:51:32;38.80;;;22.33;;
22072;SDS011;11202;50.916;4.698;2022-12-07T06:54:01;41.03;;;22.33;;
22072;SDS011;11202;50.916;4.698;2022-12-07T06:56:28;44.20;;;21.95;;
22072;SDS011;11202;50.916;4.698;2022-12-07T06:58:56;46.63;;;20.90;;
22072;SDS011;11202;50.916;4.698;2022-12-07T07:01:22;39.42;;;20.92;;
22072;SDS011;11202;50.916;4.698;2022-12-07T07:03:47;42.80;;;22.08;;
22072;SDS011;11202;50.916;4.698;2022-12-07T07:06:13;42.15;;;22.88;;
22072;SDS011;11202;50.916;4.698;2022-12-07T07:08:40;44.83;;;20.92;;
22072;SDS011;11202;50.916;4.698;2022-12-07T07:11:06;39.03;;;21.95;;
22072;SDS011;11202;50.916;4.698;2022-12-07T07:13:33;36.60;;;20.30;;
22072;SDS011;11202;50.916;4.698;2022-12-07T07:15:59;41.17;;;21.58;;
22072;SDS011;11202;50.916;4.698;2022-12-07T07:18:24;37.63;;;21.10;;
22072;SDS011;11202;50.916;4.698;2022-12-07T07:20:51;39.42;;;21.40;;
22072;SDS011;11202;50.916;4.698;2022-12-07T07:23:17;37.17;;;20.77;;
22072;SDS011;11202;50.916;4.698;2022-12-07T07:25:43;37.25;;;20.10;;
22072;SDS011;11202;50.916;4.698;2022-12-07T07:28:09;43.17;;;20.42;;
22072;SDS011;11202;50.916;4.698;2022-12-07T07:30:35;33.55;;;19.73;;
22072;SDS011;11202;50.916;4.698;2022-12-07T07:33:01;40.00;;;20.35;;
22072;SDS011;11202;50.916;4.698;2022-12-07T07:35:28;35.25;;;19.80;;
22072;SDS011;11202;50.916;4.698;2022-12-07T07:37:55;37.38;;;20.67;;
22072;SDS011;11202;50.916;4.698;2022-12-07T07:40:21;40.58;;;20.77;;
22072;SDS011;11202;50.916;4.698;2022-12-07T07:42:47;41.83;;;21.33;;
22072;SDS011;11202;50.916;4.698;2022-12-07T07:45:14;32.10;;;19.15;;
22072;SDS011;11202;50.916;4.698;2022-12-07T07:47:39;37.33;;;20.35;;
22072;SDS011;11202;50.916;4.698;2022-12-07T07:50:05;38.67;;;19.55;;
22072;SDS011;11202;50.916;4.698;2022-12-07T07:52:31;36.55;;;18.77;;
22072;SDS011;11202;50.916;4.698;2022-12-07T07:54:57;36.80;;;19.00;;
22072;SDS011;11202;50.916;4.698;2022-12-07T07:57:24;37.97;;;18.67;;
22072;SDS011;11202;50.916;4.698;2022-12-07T07:59:50;36.28;;;18.77;;
22072;SDS011;11202;50.916;4.698;2022-12-07T08:02:18;39.83;;;18.10;;
22072;SDS011;11202;50.916;4.698;2022-12-07T08:04:47;36.55;;;18.08;;
22072;SDS011;11202;50.916;4.698;2022-12-07T08:07:13;38.03;;;18.60;;
22072;SDS011;11202;50.916;4.698;2022-12-07T08:09:39;34.58;;;18.67;;
22072;SDS011;11202;50.916;4.698;2022-12-07T08:12:05;36.08;;;17.85;;
22072;SDS011;11202;50.916;4.698;2022-12-07T08:14:31;36.67;;;18.65;;
22072;SDS011;11202;50.916;4.698;2022-12-07T08:16:57;39.55;;;17.30;;
22072;SDS011;11202;50.916;4.698;2022-12-07T08:19:22;40.20;;;19.58;;
22072;SDS011;11202;50.916;4.698;2022-12-07T08:21:51;35.50;;;20.10;;
22072;SDS011;11202;50.916;4.698;2022-12-07T08:24:16;36.28;;;19.75;;
22072;SDS011;11202;50.916;4.698;2022-12-07T08:26:43;40.15;;;21.23;;
22072;SDS011;11202;50.916;4.698;2022-12-07T08:29:08;49.60;;;22.38;;
22072;SDS011;11202;50.916;4.698;2022-12-07T08:31:34;41.03;;;22.10;;
22072;SDS011;11202;50.916;4.698;2022-12-07T08:34:00;37.13;;;21.10;;
22072;SDS011;11202;50.916;4.698;2022-12-07T08:36:26;36.88;;;21.30;;
22072;SDS011;11202;50.916;4.698;2022-12-07T08:38:51;35.05;;;18.70;;
22072;SDS011;11202;50.916;4.698;2022-12-07T08:41:17;33.72;;;17.98;;
22072;SDS011;11202;50.916;4.698;2022-12-07T08:43:43;35.10;;;17.42;;
22072;SDS011;11202;50.916;4.698;2022-12-07T08:49:11;26.23;;;14.20;;
22072;SDS011;11202;50.916;4.698;2022-12-07T08:51:40;27.52;;;13.20;;
22072;SDS011;11202;50.916;4.698;2022-12-07T08:54:08;23.73;;;11.70;;
22072;SDS011;11202;50.916;4.698;2022-12-07T08:56:36;22.27;;;11.52;;
22072;SDS011;11202;50.916;4.698;2022-12-07T08:59:02;22.35;;;12.43;;
22072;SDS011;11202;50.916;4.698;2022-12-07T09:01:29;23.67;;;12.95;;
22072;SDS011;11202;50.916;4.698;2022-12-07T09:03:54;24.33;;;12.15;;
22072;SDS011;11202;50.916;4.698;2022-12-07T09:06:20;26.27;;;12.75;;
22072;SDS011;11202;50.916;4.698;2022-12-07T09:08:46;21.98;;;12.75;;
22072;SDS011;11202;50.916;4.698;2022-12-07T09:11:14;26.65;;;11.63;;
22072;SDS011;11202;50.916;4.698;2022-12-07T09:13:39;26.35;;;12.93;;
22072;SDS011;11202;50.916;4.698;2022-12-07T09:16:05;23.02;;;12.48;;
22072;SDS011;11202;50.916;4.698;2022-12-07T09:18:34;21.90;;;12.93;;
22072;SDS011;11202;50.916;4.698;2022-12-07T09:21:00;29.90;;;13.38;;
22072;SDS011;11202;50.916;4.698;2022-12-07T09:23:25;29.52;;;13.70;;
22072;SDS011;11202;50.916;4.698;2022-12-07T09:25:51;24.17;;;13.30;;
22072;SDS011;11202;50.916;4.698;2022-12-07T09:28:17;25.48;;;13.40;;
22072;SDS011;11202;50.916;4.698;2022-12-07T09:30:46;28.73;;;13.25;;
22072;SDS011;11202;50.916;4.698;2022-12-07T09:33:12;29.02;;;14.45;;
22072;SDS011;11202;50.916;4.698;2022-12-07T09:35:43;23.85;;;14.25;;
22072;SDS011;11202;50.916;4.698;2022-12-07T09:38:10;22.92;;;14.32;;
22072;SDS011;11202;50.916;4.698;2022-12-07T09:40:39;24.67;;;15.50;;
22072;SDS011;11202;50.916;4.698;2022-12-07T09:43:11;25.98;;;14.95;;
22072;SDS011;11202;50.916;4.698;2022-12-07T09:45:42;26.60;;;15.07;;
22072;SDS011;11202;50.916;4.698;2022-12-07T09:48:22;30.20;;;15.27;;
22072;SDS011;11202;50.916;4.698;2022-12-07T09:50:54;22.85;;;15.20;;
22072;SDS011;11202;50.916;4.698;2022-12-07T09:53:31;23.70;;;13.90;;
22072;SDS011;11202;50.916;4.698;2022-12-07T09:56:00;30.80;;;14.18;;
22072;SDS011;11202;50.916;4.698;2022-12-07T09:58:28;24.73;;;13.25;;
22072;SDS011;11202;50.916;4.698;2022-12-07T10:01:05;24.45;;;12.93;;
22072;SDS011;11202;50.916;4.698;2022-12-07T10:03:48;24.48;;;13.20;;
22072;SDS011;11202;50.916;4.698;2022-12-07T10:06:17;21.70;;;11.70;;
22072;SDS011;11202;50.916;4.698;2022-12-07T10:08:43;26.20;;;11.98;;
22072;SDS011;11202;50.916;4.698;2022-12-07T10:11:09;20.48;;;11.25;;
22072;SDS011;11202;50.916;4.698;2022-12-07T10:18:57;19.88;;;10.60;;
22072;SDS011;11202;50.916;4.698;2022-12-07T10:22:32;22.67;;;10.68;;
22072;SDS011;11202;50.916;4.698;2022-12-07T10:24:43;21.40;;;10.10;;
22072;SDS011;11202;50.916;4.698;2022-12-07T10:27:19;17.75;;;9.70;;
22072;SDS011;11202;50.916;4.698;2022-12-07T10:29:56;17.02;;;8.15;;
22072;SDS011;11202;50.916;4.698;2022-12-07T10:32:33;16.15;;;8.60;;
22072;SDS011;11202;50.916;4.698;2022-12-07T10:35:18;22.25;;;8.02;;
22072;SDS011;11202;50.916;4.698;2022-12-07T10:37:43;14.30;;;7.88;;
22072;SDS011;11202;50.916;4.698;2022-12-07T10:40:30;17.10;;;7.20;;
22072;SDS011;11202;50.916;4.698;2022-12-07T11:04:59;21.23;;;6.43;;
22072;SDS011;11202;50.916;4.698;2022-12-07T11:10:39;16.85;;;7.32;;
22072;SDS011;11202;50.916;4.698;2022-12-07T11:18:45;19.73;;;8.45;;
22072;SDS011;11202;50.916;4.698;2022-12-07T11:21:31;21.90;;;8.02;;
22072;SDS011;11202;50.916;4.698;2022-12-07T11:24:10;16.88;;;7.47;;
22072;SDS011;11202;50.916;4.698;2022-12-07T11:27:04;17.63;;;7.80;;
22072;SDS011;11202;50.916;4.698;2022-12-07T11:29:56;19.27;;;7.60;;
22072;SDS011;11202;50.916;4.698;2022-12-07T11:35:37;19.33;;;8.88;;
22072;SDS011;11202;50.916;4.698;2022-12-07T11:38:09;14.23;;;7.78;;
22072;SDS011;11202;50.916;4.698;2022-12-07T11:40:42;18.25;;;8.27;;
22072;SDS011;11202;50.916;4.698;2022-12-07T11:43:22;17.58;;;9.05;;
22072;SDS011;11202;50.916;4.698;2022-12-07T11:45:54;17.45;;;8.95;;
22072;SDS011;11202;50.916;4.698;2022-12-07T11:50:59;23.35;;;8.48;;
22072;SDS011;11202;50.916;4.698;2022-12-07T11:56:11;20.40;;;9.00;;
22072;SDS011;11202;50.916;4.698;2022-12-07T12:06:39;12.15;;;7.40;;
22072;SDS011;11202;50.916;4.698;2022-12-07T12:09:18;14.52;;;7.43;;
22072;SDS011;11202;50.916;4.698;2022-12-07T12:20:29;19.95;;;7.90;;
22072;SDS011;11202;50.916;4.698;2022-12-07T12:23:05;17.58;;;7.97;;
22072;SDS011;11202;50.916;4.698;2022-12-07T12:25:45;14.13;;;7.55;;
22072;SDS011;11202;50.916;4.698;2022-12-07T12:28:42;17.58;;;7.50;;
22072;SDS011;11202;50.916;4.698;2022-12-07T12:46:48;14.27;;;5.97;;
22072;SDS011;11202;50.916;4.698;2022-12-07T12:54:19;14.63;;;5.78;;
22072;SDS011;11202;50.916;4.698;2022-12-07T13:02:22;16.58;;;5.57;;
22072;SDS011;11202;50.916;4.698;2022-12-07T13:20:57;11.65;;;4.78;;
22072;SDS011;11202;50.916;4.698;2022-12-07T13:29:16;9.38;;;3.75;;
22072;SDS011;11202;50.916;4.698;2022-12-07T13:31:55;6.40;;;3.88;;
22072;SDS011;11202;50.916;4.698;2022-12-07T13:34:35;9.98;;;3.78;;
22072;SDS011;11202;50.916;4.698;2022-12-07T13:37:08;11.77;;;3.55;;
22072;SDS011;11202;50.916;4.698;2022-12-07T13:39:55;6.97;;;3.85;;
22072;SDS011;11202;50.916;4.698;2022-12-07T13:42:34;8.70;;;3.83;;
22072;SDS011;11202;50.916;4.698;2022-12-07T13:45:16;11.52;;;4.70;;
22072;SDS011;11202;50.916;4.698;2022-12-07T13:48:08;9.80;;;3.55;;
22072;SDS011;11202;50.916;4.698;2022-12-07T13:50:40;8.57;;;4.30;;
22072;SDS011;11202;50.916;4.698;2022-12-07T13:53:07;11.43;;;4.10;;
22072;SDS011;11202;50.916;4.698;2022-12-07T13:55:44;8.77;;;3.83;;
22072;SDS011;11202;50.916;4.698;2022-12-07T14:03:29;8.15;;;3.85;;
22072;SDS011;11202;50.916;4.698;2022-12-07T14:06:03;10.85;;;3.33;;
22072;SDS011;11202;50.916;4.698;2022-12-07T14:08:35;10.23;;;3.63;;
22072;SDS011;11202;50.916;4.698;2022-12-07T14:11:01;9.35;;;3.08;;
22072;SDS011;11202;50.916;4.698;2022-12-07T14:13:35;8.85;;;3.13;;
22072;SDS011;11202;50.916;4.698;2022-12-07T14:16:27;8.70;;;2.92;;
22072;SDS011;11202;50.916;4.698;2022-12-07T14:18:58;6.18;;;2.95;;
22072;SDS011;11202;50.916;4.698;2022-12-07T14:21:26;10.40;;;2.90;;
22072;SDS011;11202;50.916;4.698;2022-12-07T14:26:38;8.02;;;2.80;;
22072;SDS011;11202;50.916;4.698;2022-12-07T14:29:22;11.30;;;3.25;;
22072;SDS011;11202;50.916;4.698;2022-12-07T14:31:51;9.63;;;3.05;;
22072;SDS011;11202;50.916;4.698;2022-12-07T14:34:19;8.75;;;4.05;;
22072;SDS011;11202;50.916;4.698;2022-12-07T14:36:46;6.28;;;3.60;;
22072;SDS011;11202;50.916;4.698;2022-12-07T14:39:11;7.85;;;4.03;;
22072;SDS011;11202;50.916;4.698;2022-12-07T14:41:37;8.35;;;4.22;;
22072;SDS011;11202;50.916;4.698;2022-12-07T14:44:23;5.82;;;3.03;;
22072;SDS011;11202;50.916;4.698;2022-12-07T14:46:49;7.07;;;2.70;;
22072;SDS011;11202;50.916;4.698;2022-12-07T14:49:16;7.63;;;3.28;;
22072;SDS011;11202;50.916;4.698;2022-12-07T14:51:42;4.82;;;3.70;;
22072;SDS011;11202;50.916;4.698;2022-12-07T14:54:13;9.55;;;4.30;;
22072;SDS011;11202;50.916;4.698;2022-12-07T14:56:43;10.40;;;5.30;;
22072;SDS011;11202;50.916;4.698;2022-12-07T14:59:10;10.60;;;5.72;;
22072;SDS011;11202;50.916;4.698;2022-12-07T15:01:37;7.75;;;5.55;;
22072;SDS011;11202;50.916;4.698;2022-12-07T15:04:03;9.52;;;6.20;;
22072;SDS011;11202;50.916;4.698;2022-12-07T15:06:28;8.80;;;6.15;;
22072;SDS011;11202;50.916;4.698;2022-12-07T15:08:54;9.75;;;6.43;;
22072;SDS011;11202;50.916;4.698;2022-12-07T15:11:20;12.40;;;6.90;;
22072;SDS011;11202;50.916;4.698;2022-12-07T15:13:45;8.00;;;5.25;;
22072;SDS011;11202;50.916;4.698;2022-12-07T15:16:30;9.15;;;5.70;;
22072;SDS011;11202;50.916;4.698;2022-12-07T15:18:56;8.48;;;5.00;;
22072;SDS011;11202;50.916;4.698;2022-12-07T15:21:21;7.97;;;5.10;;
22072;SDS011;11202;50.916;4.698;2022-12-07T15:23:47;9.90;;;4.78;;
22072;SDS011;11202;50.916;4.698;2022-12-07T15:26:15;8.45;;;4.38;;
22072;SDS011;11202;50.916;4.698;2022-12-07T15:28:43;6.82;;;4.72;;
22072;SDS011;11202;50.916;4.698;2022-12-07T15:31:12;9.90;;;4.70;;
22072;SDS011;11202;50.916;4.698;2022-12-07T15:33:42;6.30;;;4.45;;
22072;SDS011;11202;50.916;4.698;2022-12-07T15:36:09;8.90;;;5.03;;
22072;SDS011;11202;50.916;4.698;2022-12-07T15:38:46;9.60;;;5.47;;
22072;SDS011;11202;50.916;4.698;2022-12-07T15:41:12;8.68;;;6.07;;
22072;SDS011;11202;50.916;4.698;2022-12-07T15:43:38;12.13;;;6.03;;
22072;SDS011;11202;50.916;4.698;2022-12-07T15:46:22;9.68;;;6.30;;
22072;SDS011;11202;50.916;4.698;2022-12-07T15:48:48;13.07;;;7.00;;
22072;SDS011;11202;50.916;4.698;2022-12-07T15:51:13;10.52;;;6.88;;
22072;SDS011;11202;50.916;4.698;2022-12-07T15:53:42;10.75;;;7.38;;
22072;SDS011;11202;50.916;4.698;2022-12-07T15:56:08;10.95;;;6.70;;
22072;SDS011;11202;50.916;4.698;2022-12-07T15:58:33;12.10;;;7.72;;
22072;SDS011;11202;50.916;4.698;2022-12-07T16:01:09;12.10;;;7.13;;
22072;SDS011;11202;50.916;4.698;2022-12-07T16:03:39;13.20;;;7.20;;
22072;SDS011;11202;50.916;4.698;2022-12-07T16:06:05;14.63;;;9.18;;
22072;SDS011;11202;50.916;4.698;2022-12-07T16:08:31;19.67;;;8.95;;
22072;SDS011;11202;50.916;4.698;2022-12-07T16:10:57;9.30;;;6.40;;
22072;SDS011;11202;50.916;4.698;2022-12-07T16:13:23;10.80;;;6.75;;
22072;SDS011;11202;50.916;4.698;2022-12-07T16:15:51;11.50;;;6.40;;
22072;SDS011;11202;50.916;4.698;2022-12-07T16:18:17;14.02;;;5.47;;
22072;SDS011;11202;50.916;4.698;2022-12-07T16:20:42;11.95;;;5.38;;
22072;SDS011;11202;50.916;4.698;2022-12-07T16:23:08;8.55;;;4.80;;
22072;SDS011;11202;50.916;4.698;2022-12-07T16:25:33;8.35;;;4.45;;
22072;SDS011;11202;50.916;4.698;2022-12-07T16:27:59;5.78;;;3.92;;
22072;SDS011;11202;50.916;4.698;2022-12-07T16:30:27;7.60;;;4.40;;
22072;SDS011;11202;50.916;4.698;2022-12-07T16:32:53;12.70;;;4.10;;
22072;SDS011;11202;50.916;4.698;2022-12-07T16:35:18;8.60;;;4.47;;
22072;SDS011;11202;50.916;4.698;2022-12-07T16:37:46;12.65;;;4.97;;
22072;SDS011;11202;50.916;4.698;2022-12-07T16:40:12;15.32;;;4.30;;
22072;SDS011;11202;50.916;4.698;2022-12-07T16:42:43;6.22;;;4.10;;
22072;SDS011;11202;50.916;4.698;2022-12-07T16:45:08;12.68;;;4.60;;
22072;SDS011;11202;50.916;4.698;2022-12-07T16:47:36;8.38;;;4.57;;
22072;SDS011;11202;50.916;4.698;2022-12-07T16:50:02;10.82;;;4.28;;
22072;SDS011;11202;50.916;4.698;2022-12-07T16:52:29;9.85;;;4.38;;
22072;SDS011;11202;50.916;4.698;2022-12-07T16:54:54;8.45;;;4.97;;
22072;SDS011;11202;50.916;4.698;2022-12-07T16:57:20;9.95;;;5.63;;
22072;SDS011;11202;50.916;4.698;2022-12-07T16:59:45;9.27;;;4.55;;
22072;SDS011;11202;50.916;4.698;2022-12-07T17:02:11;12.07;;;5.20;;
22072;SDS011;11202;50.916;4.698;2022-12-07T17:04:46;10.95;;;4.88;;
22072;SDS011;11202;50.916;4.698;2022-12-07T17:20:33;8.40;;;3.95;;
22072;SDS011;11202;50.916;4.698;2022-12-07T17:22:59;5.45;;;3.70;;
22072;SDS011;11202;50.916;4.698;2022-12-07T22:24:30;16.33;;;9.00;;
22072;SDS011;11202;50.916;4.698;2022-12-07T22:26:55;16.73;;;8.23;;
22072;SDS011;11202;50.916;4.698;2022-12-07T22:29:24;11.77;;;8.32;;
22072;SDS011;11202;50.916;4.698;2022-12-07T22:32:05;17.02;;;8.63;;
22072;SDS011;11202;50.916;4.698;2022-12-07T22:34:32;12.75;;;8.30;;